Time;durP1;ratioP1;P1;durP2;ratioP2;P2;SDS_P1;SDS_P2;PMS_P1;PMS_P2;Temp;Humidity;BMP_temperature;BMP_pressure;BME280_temperature;BME280_humidity;BME280_pressure;Samples;Min_cycle;Max_cycle;Signal;HPM_P1;HPM_P2
2023/05/17 00:01:28;;;;;;;13.83;9.90;;;;;;;8.09;100.00;101794.69;5054881;28;20501;-42
2023/05/17 00:03:56;;;;;;;9.37;8.67;;;;;;;8.07;100.00;101801.13;5050227;28;20438;-41
2023/05/17 00:06:25;;;;;;;19.33;9.30;;;;;;;8.04;100.00;101804.94;5051741;28;20993;-43
2023/05/17 00:08:53;;;;;;;10.80;8.40;;;;;;;8.10;100.00;101800.81;5049991;28;20473;-48
2023/05/17 00:11:20;;;;;;;11.60;9.10;;;;;;;8.06;100.00;101802.13;5052621;28;20497;-43
2023/05/17 00:13:48;;;;;;;9.70;8.03;;;;;;;7.97;100.00;101806.56;5050657;28;20485;-41
2023/05/17 00:16:16;;;;;;;11.23;8.83;;;;;;;8.02;100.00;101804.25;5050103;28;20447;-42
2023/05/17 00:18:44;;;;;;;11.40;8.20;;;;;;;8.00;100.00;101808.06;5049349;28;20473;-42
2023/05/17 00:21:12;;;;;;;20.83;8.43;;;;;;;8.02;100.00;101814.88;5050257;28;20820;-44
2023/05/17 00:23:41;;;;;;;16.00;10.13;;;;;;;7.96;100.00;101812.84;5050709;28;20828;-44
2023/05/17 00:26:08;;;;;;;13.00;8.90;;;;;;;7.90;100.00;101812.63;5049109;28;20534;-41
2023/05/17 00:28:36;;;;;;;10.20;8.13;;;;;;;7.84;100.00;101821.19;5048699;28;20455;-40
2023/05/17 00:31:04;;;;;;;13.30;7.90;;;;;;;7.74;100.00;101813.31;5050046;28;20493;-44
2023/05/17 00:33:32;;;;;;;17.20;9.07;;;;;;;7.76;100.00;101820.13;5050117;28;20558;-42
2023/05/17 00:35:59;;;;;;;16.13;8.70;;;;;;;7.71;100.00;101813.59;5050446;28;20485;-42
2023/05/17 00:38:27;;;;;;;14.43;8.20;;;;;;;7.65;100.00;101822.19;5048532;28;20481;-47
2023/05/17 00:40:56;;;;;;;14.10;9.77;;;;;;;7.55;100.00;101822.28;5050733;28;20815;-44
2023/05/17 00:43:24;;;;;;;11.23;8.27;;;;;;;7.54;100.00;101827.72;5050590;28;20431;-44
2023/05/17 00:45:52;;;;;;;14.93;8.17;;;;;;;7.67;100.00;101838.81;5048304;28;20451;-43
2023/05/17 00:48:20;;;;;;;12.60;8.10;;;;;;;7.60;100.00;101833.25;5049297;28;20880;-45
2023/05/17 00:50:49;;;;;;;13.53;8.20;;;;;;;7.58;100.00;101823.78;5049638;28;20431;-41
2023/05/17 00:53:17;;;;;;;11.63;8.70;;;;;;;7.60;100.00;101827.13;5049688;28;20427;-41
2023/05/17 00:55:45;;;;;;;19.53;7.80;;;;;;;7.63;100.00;101837.44;5049909;28;20451;-42
2023/05/17 00:58:15;;;;;;;13.73;8.00;;;;;;;7.54;100.00;101836.53;5048828;28;20481;-44
2023/05/17 01:00:43;;;;;;;9.00;7.00;;;;;;;7.55;100.00;101842.66;5049359;28;20872;-41
2023/05/17 01:03:11;;;;;;;17.70;8.20;;;;;;;7.50;100.00;101847.56;5050359;28;20427;-44
2023/05/17 01:05:39;;;;;;;15.50;8.50;;;;;;;7.48;100.00;101854.84;5050202;28;20453;-42
2023/05/17 01:08:06;;;;;;;8.73;7.90;;;;;;;7.46;100.00;101848.88;5049377;28;20534;-41
2023/05/17 01:10:40;;;;;;;11.27;8.17;;;;;;;7.45;100.00;101863.13;5048949;28;20489;-45
2023/05/17 01:13:15;;;;;;;11.77;8.37;;;;;;;7.49;100.00;101872.47;5049461;28;20455;-42
2023/05/17 01:15:48;;;;;;;12.87;9.20;;;;;;;7.48;100.00;101873.44;5049250;28;20482;-41
2023/05/17 01:18:24;;;;;;;9.67;8.30;;;;;;;7.49;100.00;101867.16;5050070;28;20509;-40
2023/05/17 01:20:55;;;;;;;12.57;8.40;;;;;;;7.44;100.00;101870.25;5049395;28;20505;-41
2023/05/17 01:23:42;;;;;;;18.40;9.23;;;;;;;7.42;100.00;101880.19;5049622;28;20878;-43
2023/05/17 01:26:16;;;;;;;18.00;9.97;;;;;;;7.42;100.00;101874.03;5048703;28;20455;-43
2023/05/17 01:28:47;;;;;;;20.90;9.80;;;;;;;7.38;100.00;101875.34;5048332;28;20541;-45
2023/05/17 01:31:15;;;;;;;14.57;9.03;;;;;;;7.33;100.00;101865.16;5048927;28;20455;-46
2023/05/17 01:33:43;;;;;;;18.17;10.27;;;;;;;7.38;100.00;101875.34;5048219;28;20925;-45
2023/05/17 01:36:11;;;;;;;12.50;9.23;;;;;;;7.37;100.00;101877.13;5047799;28;20539;-47
2023/05/17 01:38:39;;;;;;;23.67;9.10;;;;;;;7.39;100.00;101867.19;5047979;28;20459;-49
2023/05/17 01:41:13;;;;;;;20.03;9.27;;;;;;;7.47;100.00;101880.56;5048214;28;20470;-45
2023/05/17 01:43:50;;;;;;;15.73;8.93;;;;;;;7.38;100.00;101885.94;5048195;28;20463;-47
2023/05/17 01:46:26;;;;;;;14.13;8.63;;;;;;;7.48;100.00;101894.66;5048307;28;20505;-43
2023/05/17 01:49:00;;;;;;;16.73;9.80;;;;;;;7.45;100.00;101902.94;5047869;28;20585;-43
2023/05/17 01:51:33;;;;;;;26.77;10.17;;;;;;;7.45;100.00;101893.16;5048423;28;20421;-41
2023/05/17 01:54:08;;;;;;;11.37;8.47;;;;;;;7.42;100.00;101909.38;5048393;28;20435;-42
2023/05/17 01:56:41;;;;;;;18.30;9.50;;;;;;;7.34;100.00;101911.09;5047981;28;20514;-44
2023/05/17 01:59:11;;;;;;;15.03;8.40;;;;;;;7.29;100.00;101911.53;5048139;28;20451;-42
2023/05/17 02:01:40;;;;;;;9.67;8.20;;;;;;;7.26;100.00;101908.34;5048297;28;21000;-43
2023/05/17 02:04:09;;;;;;;14.87;8.10;;;;;;;7.30;100.00;101910.53;5049089;28;20522;-47
2023/05/17 02:06:37;;;;;;;16.63;9.50;;;;;;;7.34;100.00;101911.09;5048914;28;20481;-43
2023/05/17 02:09:05;;;;;;;15.53;8.87;;;;;;;7.28;100.00;101909.88;5047960;28;20459;-46
2023/05/17 02:11:33;;;;;;;14.70;8.07;;;;;;;7.31;100.00;101916.69;5049417;28;20489;-41
2023/05/17 02:14:01;;;;;;;12.50;9.03;;;;;;;7.27;100.00;101917.97;5049247;28;20431;-43
2023/05/17 02:16:30;;;;;;;16.53;7.67;;;;;;;7.31;100.00;101914.03;5049193;28;20431;-42
2023/05/17 02:18:58;;;;;;;12.67;8.40;;;;;;;7.33;100.00;101922.69;5048910;28;20471;-43
2023/05/17 02:21:26;;;;;;;12.27;7.67;;;;;;;7.24;100.00;101921.75;5048277;28;20510;-42
2023/05/17 02:23:54;;;;;;;13.27;7.90;;;;;;;7.28;100.00;101919.63;5048250;28;20522;-43
2023/05/17 02:26:22;;;;;;;12.63;8.37;;;;;;;7.24;100.00;101921.75;5045361;28;20562;-41
2023/05/17 02:28:49;;;;;;;16.57;8.20;;;;;;;7.24;100.00;101927.88;5046940;28;21125;-42
2023/05/17 02:31:17;;;;;;;12.03;8.20;;;;;;;7.18;100.00;101928.47;5047232;28;21031;-41
2023/05/17 02:33:46;;;;;;;10.93;7.70;;;;;;;7.15;100.00;101925.28;5047926;28;20501;-43
2023/05/17 02:36:14;;;;;;;9.73;7.63;;;;;;;7.15;100.00;101931.41;5047506;28;20447;-42
2023/05/17 02:38:42;;;;;;;7.77;7.10;;;;;;;7.16;100.00;101935.75;5046471;28;20486;-42
2023/05/17 02:41:10;;;;;;;14.20;7.03;;;;;;;7.21;100.00;101927.34;5047067;28;20477;-42
2023/05/17 02:43:37;;;;;;;15.50;7.97;;;;;;;7.23;100.00;101925.38;5047119;28;20501;-44
2023/05/17 02:46:05;;;;;;;13.77;7.47;;;;;;;7.24;100.00;101933.19;5047407;28;20530;-46
2023/05/17 02:48:33;;;;;;;7.47;6.50;;;;;;;7.22;100.00;101934.31;5047463;28;20538;-44
2023/05/17 02:51:02;;;;;;;12.03;6.90;;;;;;;7.21;100.00;101949.41;5047888;28;20461;-43
2023/05/17 02:53:30;;;;;;;10.80;7.83;;;;;;;7.21;100.00;101946.75;5048157;28;20526;-42
2023/05/17 02:55:58;;;;;;;12.63;6.97;;;;;;;7.20;100.00;101950.38;5047586;28;21046;-46
2023/05/17 02:58:26;;;;;;;13.43;6.63;;;;;;;7.23;100.00;101946.59;5048393;28;20847;-44
2023/05/17 03:00:54;;;;;;;9.50;7.47;;;;;;;7.22;100.00;101945.78;5051305;28;20439;-42
2023/05/17 03:03:22;;;;;;;9.13;6.73;;;;;;;7.21;100.00;101948.56;5051074;28;20482;-42
2023/05/17 03:05:50;;;;;;;11.20;7.67;;;;;;;7.28;100.00;101936.41;5051710;28;20462;-45
2023/05/17 03:08:19;;;;;;;16.63;6.97;;;;;;;7.29;100.00;101948.66;5050631;28;20996;-40
2023/05/17 03:10:47;;;;;;;10.37;7.43;;;;;;;7.35;100.00;101936.66;5052706;28;20806;-41
2023/05/17 03:13:14;;;;;;;12.07;6.63;;;;;;;7.35;100.00;101942.78;5051403;28;20522;-42
2023/05/17 03:15:42;;;;;;;12.83;6.67;;;;;;;7.30;100.00;101946.84;5051798;28;20455;-42
2023/05/17 03:18:10;;;;;;;22.43;7.70;;;;;;;7.34;100.00;101942.94;5050600;28;20542;-45
2023/05/17 03:20:38;;;;;;;13.90;7.00;;;;;;;7.35;100.00;101945.44;5051224;28;20937;-44
2023/05/17 03:23:06;;;;;;;10.30;6.53;;;;;;;7.29;100.00;101946.00;5051011;28;20882;-43
2023/05/17 03:25:35;;;;;;;9.47;6.10;;;;;;;7.24;100.00;101946.47;5049149;28;20849;-41
2023/05/17 03:28:03;;;;;;;10.03;6.67;;;;;;;7.29;100.00;101953.16;5049909;28;20493;-45
2023/05/17 03:30:30;;;;;;;16.83;7.53;;;;;;;7.23;100.00;101955.38;5050487;28;21002;-43
2023/05/17 03:32:58;;;;;;;8.27;6.53;;;;;;;7.26;100.00;101961.41;5050260;28;20427;-46
2023/05/17 03:35:26;;;;;;;10.73;7.40;;;;;;;7.32;100.00;101966.13;5050297;28;21063;-42
2023/05/17 03:37:54;;;;;;;21.70;6.50;;;;;;;7.28;100.00;101970.91;5049969;28;20525;-48
2023/05/17 03:40:22;;;;;;;14.93;6.27;;;;;;;7.29;100.00;101961.13;5050345;28;20435;-46
2023/05/17 03:42:52;;;;;;;13.23;7.00;;;;;;;7.34;100.00;101966.81;5049813;28;20475;-41
2023/05/17 03:45:21;;;;;;;6.93;6.07;;;;;;;7.45;100.00;101972.78;5050274;28;20508;-40
2023/05/17 03:47:48;;;;;;;7.53;6.77;;;;;;;7.44;100.00;101978.22;5050096;28;20505;-40
2023/05/17 03:50:16;;;;;;;9.60;6.30;;;;;;;7.40;100.00;101982.16;5050309;28;20560;-40
2023/05/17 03:52:45;;;;;;;6.10;5.50;;;;;;;7.51;100.00;101988.13;5049865;28;20800;-41
2023/05/17 03:55:12;;;;;;;8.50;6.03;;;;;;;7.47;100.00;101984.06;5050302;28;20512;-40
2023/05/17 03:57:40;;;;;;;7.67;5.90;;;;;;;7.54;100.00;101994.94;5049364;28;20495;-42
2023/05/17 04:00:11;;;;;;;8.43;5.70;;;;;;;7.49;100.00;101989.25;5049966;28;20433;-40
2023/05/17 04:02:38;;;;;;;11.97;6.60;;;;;;;7.52;100.00;101992.44;5049926;28;20467;-42
2023/05/17 04:05:07;;;;;;;10.93;7.03;;;;;;;7.49;100.00;101994.56;5050144;28;20483;-43
2023/05/17 04:07:35;;;;;;;12.87;5.70;;;;;;;7.55;100.00;101997.47;5049318;28;20465;-46
2023/05/17 04:10:02;;;;;;;14.93;6.57;;;;;;;7.50;100.00;102018.28;5049915;28;20437;-41
2023/05/17 04:12:30;;;;;;;9.90;6.23;;;;;;;7.46;100.00;102005.47;5050440;28;20531;-42
2023/05/17 04:14:58;;;;;;;10.43;6.20;;;;;;;7.47;100.00;102012.41;5051174;28;20452;-43
2023/05/17 04:17:27;;;;;;;13.13;6.80;;;;;;;7.54;100.00;102008.22;5050806;28;20852;-43
2023/05/17 04:19:55;;;;;;;9.30;6.50;;;;;;;7.54;100.00;102006.41;5049949;28;20442;-41
2023/05/17 04:22:23;;;;;;;11.20;5.60;;;;;;;7.56;100.00;102014.19;5049627;28;20502;-43
2023/05/17 04:24:50;;;;;;;17.50;6.53;;;;;;;7.54;100.00;102013.53;5049560;28;20473;-41
2023/05/17 04:27:18;;;;;;;9.23;5.87;;;;;;;7.66;100.00;102030.94;5049824;28;20459;-43
2023/05/17 04:29:46;;;;;;;15.37;4.87;;;;;;;7.59;100.00;102022.72;5049844;28;20514;-42
2023/05/17 04:32:14;;;;;;;11.23;5.67;;;;;;;7.55;100.00;102021.34;5049256;28;20497;-40
2023/05/17 04:34:46;;;;;;;13.50;5.80;;;;;;;7.69;100.00;102028.00;5049667;28;20533;-41
2023/05/17 04:37:14;;;;;;;12.17;6.43;;;;;;;7.77;100.00;102036.06;5048876;28;20810;-41
2023/05/17 04:39:42;;;;;;;11.23;5.80;;;;;;;7.80;100.00;102036.59;5049669;28;20455;-45
2023/05/17 04:42:10;;;;;;;13.03;6.47;;;;;;;7.68;100.00;102028.97;5049643;28;20949;-40
2023/05/17 04:44:38;;;;;;;12.60;6.07;;;;;;;7.70;100.00;102037.63;5049731;28;20897;-40
2023/05/17 04:47:05;;;;;;;14.60;6.50;;;;;;;7.69;100.00;102036.81;5048709;28;20507;-40
2023/05/17 04:49:33;;;;;;;27.23;6.60;;;;;;;7.78;100.00;102053.66;5048556;28;21348;-41
2023/05/17 04:52:02;;;;;;;15.20;6.27;;;;;;;7.77;100.00;102049.31;5049103;28;20435;-42
2023/05/17 04:54:32;;;;;;;12.40;6.80;;;;;;;7.85;100.00;102059.22;5049549;28;20534;-43
2023/05/17 04:57:00;;;;;;;12.53;6.90;;;;;;;7.80;100.00;102054.34;5049113;28;20477;-41
2023/05/17 04:59:28;;;;;;;11.20;7.70;;;;;;;7.82;100.00;102065.69;5049517;28;20517;-41
2023/05/17 05:01:56;;;;;;;19.23;6.70;;;;;;;7.81;100.00;102077.28;5048317;28;20420;-43
2023/05/17 05:04:24;;;;;;;8.43;5.80;;;;;;;7.89;100.00;102071.22;5048561;28;20490;-42
2023/05/17 05:06:52;;;;;;;9.60;6.77;;;;;;;7.88;100.00;102070.41;5048490;28;20427;-42
2023/05/17 05:09:21;;;;;;;15.33;7.00;;;;;;;7.97;100.00;102079.31;5049097;28;20789;-41
2023/05/17 05:11:48;;;;;;;17.10;7.67;;;;;;;7.89;100.00;102080.03;5048649;28;20501;-41
2023/05/17 05:14:16;;;;;;;13.20;6.27;;;;;;;7.96;100.00;102080.28;5048558;28;20526;-42
2023/05/17 05:16:44;;;;;;;12.90;6.10;;;;;;;7.96;100.00;102067.84;5048986;28;20522;-41
2023/05/17 05:19:11;;;;;;;21.30;8.13;;;;;;;7.99;100.00;102062.22;5048309;28;20533;-42
2023/05/17 05:21:39;;;;;;;12.60;5.83;;;;;;;7.93;100.00;102072.59;5048039;28;20848;-41
2023/05/17 05:24:08;;;;;;;6.70;4.90;;;;;;;7.94;100.00;102074.28;5048466;28;20470;-42
2023/05/17 05:26:37;;;;;;;17.83;6.40;;;;;;;8.04;100.00;102081.22;5046909;28;20431;-43
2023/05/17 05:29:04;;;;;;;6.50;5.90;;;;;;;7.93;100.00;102088.53;5048507;28;20547;-40
2023/05/17 05:31:32;;;;;;;14.70;6.67;;;;;;;8.03;100.00;102098.16;5056709;22;20584;-41
2023/05/17 05:34:00;;;;;;;18.13;8.33;;;;;;;8.01;100.00;102091.28;5006682;28;20929;-42
2023/05/17 05:36:29;;;;;;;8.10;5.70;;;;;;;8.05;100.00;102098.84;5014483;28;20439;-40
2023/05/17 05:38:57;;;;;;;11.40;6.17;;;;;;;8.04;100.00;102099.81;5014441;28;20468;-44
2023/05/17 05:41:26;;;;;;;20.17;8.60;;;;;;;7.99;100.00;102107.41;5014565;28;20484;-41
2023/05/17 05:43:55;;;;;;;31.63;7.40;;;;;;;8.10;100.00;102109.84;5013605;28;20464;-41
2023/05/17 05:46:22;;;;;;;13.63;6.97;;;;;;;8.07;100.00;102110.16;5015446;28;20461;-42
2023/05/17 05:48:50;;;;;;;16.30;7.20;;;;;;;8.14;100.00;102127.19;5013846;28;20488;-43
2023/05/17 05:51:18;;;;;;;7.37;5.33;;;;;;;8.25;100.00;102126.13;5013769;28;20489;-42
2023/05/17 05:53:49;;;;;;;10.47;7.17;;;;;;;8.36;100.00;102126.00;5014267;28;20428;-41
2023/05/17 05:56:16;;;;;;;10.20;5.77;;;;;;;8.36;100.00;102130.47;5013929;28;20445;-41
2023/05/17 05:58:44;;;;;;;11.07;5.57;;;;;;;8.43;100.00;102121.72;5013964;28;20528;-41
2023/05/17 06:01:13;;;;;;;9.30;5.90;;;;;;;8.47;100.00;102130.25;5014523;28;20461;-41
2023/05/17 06:03:41;;;;;;;12.27;6.10;;;;;;;8.58;100.00;102128.22;5013950;28;20503;-41
2023/05/17 06:06:09;;;;;;;8.60;5.30;;;;;;;8.48;100.00;102123.97;5013728;28;20524;-42
2023/05/17 06:08:38;;;;;;;14.33;6.10;;;;;;;8.45;100.00;102130.41;5013199;28;20493;-40
2023/05/17 06:11:05;;;;;;;15.50;6.37;;;;;;;8.54;100.00;102141.97;5012769;28;20496;-42
2023/05/17 06:13:33;;;;;;;10.93;6.00;;;;;;;8.69;100.00;102146.59;5013908;28;20421;-40
2023/05/17 06:16:01;;;;;;;21.10;6.17;;;;;;;8.67;100.00;102143.28;5013641;28;20433;-42
2023/05/17 06:18:30;;;;;;;12.37;5.87;;;;;;;8.70;100.00;102148.28;5013102;28;20597;-42
2023/05/17 06:20:58;;;;;;;13.07;5.90;;;;;;;8.80;100.00;102146.41;5013961;28;20503;-42
2023/05/17 06:23:26;;;;;;;8.10;5.70;;;;;;;9.03;100.00;102145.94;5013412;28;20497;-41
2023/05/17 06:25:54;;;;;;;6.50;5.30;;;;;;;9.32;97.99;102149.19;5012737;28;20434;-41
2023/05/17 06:28:22;;;;;;;7.70;5.70;;;;;;;9.49;95.88;102155.50;5012395;28;20461;-43
2023/05/17 06:30:50;;;;;;;8.07;5.37;;;;;;;9.46;92.41;102156.66;5012764;28;20578;-41
2023/05/17 06:33:18;;;;;;;14.93;6.30;;;;;;;9.44;100.00;102148.81;5016235;28;20519;-42
2023/05/17 06:35:47;;;;;;;14.83;5.57;;;;;;;9.41;98.21;102172.22;5020070;28;20798;-47
2023/05/17 06:38:21;;;;;;;8.10;5.90;;;;;;;9.41;100.00;102166.91;5017306;28;20999;-41
2023/05/17 06:40:52;;;;;;;27.87;6.40;;;;;;;9.42;94.82;102177.41;5019617;28;20456;-43
2023/05/17 06:43:20;;;;;;;11.23;6.20;;;;;;;9.36;97.28;102180.69;5020326;28;20436;-48
2023/05/17 06:45:48;;;;;;;11.07;5.50;;;;;;;9.42;100.00;102181.91;5019201;28;20468;-43
2023/05/17 06:48:16;;;;;;;10.13;5.60;;;;;;;9.64;100.00;102184.09;5019147;28;20464;-46
2023/05/17 06:50:44;;;;;;;7.33;5.33;;;;;;;9.64;100.00;102196.56;5019150;28;20433;-47
2023/05/17 06:53:13;;;;;;;10.47;5.33;;;;;;;9.40;96.80;102197.19;5020196;28;21025;-43
2023/05/17 06:55:41;;;;;;;10.20;5.30;;;;;;;9.40;98.31;102197.19;5020130;28;20455;-43
2023/05/17 06:58:09;;;;;;;17.53;6.17;;;;;;;9.41;100.00;102190.88;5019922;28;20469;-48
2023/05/17 07:00:37;;;;;;;15.87;6.27;;;;;;;9.41;99.93;102207.69;5019227;28;20683;-43
2023/05/17 07:03:05;;;;;;;7.20;5.67;;;;;;;9.27;97.63;102197.59;5018846;28;20802;-40
2023/05/17 07:05:33;;;;;;;7.40;4.83;;;;;;;9.32;100.00;102205.09;5016453;28;20476;-42
2023/05/17 07:08:01;;;;;;;12.60;6.00;;;;;;;9.40;99.12;102207.84;5016265;28;20468;-49
2023/05/17 07:10:30;;;;;;;10.60;5.73;;;;;;;9.41;100.00;102207.69;5016983;28;20429;-41
2023/05/17 07:12:59;;;;;;;9.97;5.10;;;;;;;9.40;100.00;102206.03;5016959;28;20425;-41
2023/05/17 07:15:27;;;;;;;9.40;5.17;;;;;;;9.31;100.00;102227.41;5017331;28;20483;-42
2023/05/17 07:17:55;;;;;;;14.07;6.60;;;;;;;9.28;100.00;102211.72;5016532;28;20464;-42
2023/05/17 07:20:23;;;;;;;10.90;6.17;;;;;;;9.18;100.00;102206.47;5016842;28;20437;-42
2023/05/17 07:22:50;;;;;;;10.43;5.70;;;;;;;9.27;100.00;102218.88;5017534;28;20889;-42
2023/05/17 07:25:20;;;;;;;8.57;5.53;;;;;;;9.29;100.00;102213.38;5017329;28;20559;-43
2023/05/17 07:27:49;;;;;;;9.37;5.77;;;;;;;9.29;100.00;102234.69;5006087;28;20495;-43
2023/05/17 07:30:17;;;;;;;10.57;4.90;;;;;;;9.12;100.00;102231.03;5016739;28;20524;-42
2023/05/17 07:32:45;;;;;;;10.23;5.57;;;;;;;9.19;100.00;102236.59;5017054;28;20467;-44
2023/05/17 07:35:13;;;;;;;8.50;5.47;;;;;;;9.35;100.00;102232.25;5016965;28;20460;-42
2023/05/17 07:37:41;;;;;;;10.60;5.87;;;;;;;9.46;100.00;102231.22;5015460;28;21032;-42
2023/05/17 07:40:10;;;;;;;14.43;6.20;;;;;;;9.85;100.00;102223.69;5016317;28;20437;-41
2023/05/17 07:42:38;;;;;;;15.17;5.53;;;;;;;9.73;100.00;102233.75;5017305;28;20461;-41
2023/05/17 07:45:09;;;;;;;11.73;4.80;;;;;;;9.89;97.15;102243.69;5015860;28;20999;-42
2023/05/17 07:47:36;;;;;;;7.00;5.00;;;;;;;9.90;98.77;102232.88;5015468;28;20465;-42
2023/05/17 07:50:05;;;;;;;9.53;4.90;;;;;;;9.74;100.00;102243.41;5016776;28;20467;-41
2023/05/17 07:52:33;;;;;;;13.27;4.67;;;;;;;9.72;94.35;102263.22;5016794;28;20445;-40
2023/05/17 07:55:01;;;;;;;5.43;4.80;;;;;;;9.90;96.35;102256.03;5016471;28;20433;-42
2023/05/17 07:57:30;;;;;;;7.17;4.60;;;;;;;9.91;96.54;102263.88;5015444;28;20459;-41
2023/05/17 07:59:57;;;;;;;9.57;5.20;;;;;;;9.99;99.83;102255.94;5017413;28;20918;-42
2023/05/17 08:02:27;;;;;;;8.90;5.40;;;;;;;10.08;97.29;102264.81;5015817;28;20461;-42
2023/05/17 08:04:54;;;;;;;8.07;5.03;;;;;;;10.34;99.72;102256.84;5016892;28;20792;-42
2023/05/17 08:07:22;;;;;;;11.23;5.23;;;;;;;10.38;94.20;102260.88;5016816;28;20475;-41
2023/05/17 08:09:50;;;;;;;8.93;5.10;;;;;;;10.30;93.45;102264.34;5016115;28;20437;-43
2023/05/17 08:12:18;;;;;;;10.67;4.80;;;;;;;10.24;95.16;102266.78;5017101;28;20453;-42
2023/05/17 08:14:45;;;;;;;8.07;4.90;;;;;;;10.25;89.48;102274.63;5016277;28;20430;-43
2023/05/17 08:17:13;;;;;;;5.03;4.53;;;;;;;10.29;90.94;102286.66;5017250;28;20821;-42
2023/05/17 08:19:42;;;;;;;10.13;4.60;;;;;;;10.50;90.61;102263.13;5016551;28;20440;-42
2023/05/17 08:22:10;;;;;;;5.80;4.93;;;;;;;10.68;97.27;102268.34;5015349;28;20452;-44
2023/05/17 08:24:38;;;;;;;7.57;4.73;;;;;;;10.67;92.33;102287.19;5016823;28;20468;-43
2023/05/17 08:27:06;;;;;;;12.03;5.00;;;;;;;10.93;95.58;102278.13;5005947;28;20429;-42
2023/05/17 08:29:33;;;;;;;7.70;4.47;;;;;;;10.77;89.33;102283.41;5016151;28;20491;-41
2023/05/17 08:32:01;;;;;;;5.33;4.13;;;;;;;11.08;79.38;102291.69;5015761;28;20468;-41
2023/05/17 08:34:29;;;;;;;7.40;4.60;;;;;;;11.24;87.33;102286.38;5015470;28;20469;-43
2023/05/17 08:36:58;;;;;;;12.77;6.00;;;;;;;11.44;85.04;102286.94;5015313;28;20717;-45
2023/05/17 08:39:26;;;;;;;11.83;5.47;;;;;;;11.33;80.75;102276.56;5015772;28;20443;-42
2023/05/17 08:41:58;;;;;;;7.20;4.10;;;;;;;11.08;84.47;102289.00;5016561;28;20796;-44
2023/05/17 08:44:27;;;;;;;12.23;5.03;;;;;;;11.09;86.96;102275.50;5015105;28;20850;-41
2023/05/17 08:46:58;;;;;;;8.33;5.10;;;;;;;11.19;89.71;102280.72;5015238;28;20685;-41
2023/05/17 08:49:27;;;;;;;12.90;4.93;;;;;;;11.21;87.41;102299.22;5014801;28;20418;-42
2023/05/17 08:51:59;;;;;;;6.83;4.83;;;;;;;10.93;87.65;102298.66;5015681;28;20448;-42
2023/05/17 08:54:27;;;;;;;6.00;4.80;;;;;;;10.92;89.33;102302.31;5015465;28;20429;-40
2023/05/17 08:56:59;;;;;;;6.57;4.57;;;;;;;10.88;91.13;102299.13;5014420;28;20453;-41
2023/05/17 08:59:32;;;;;;;11.07;4.70;;;;;;;11.03;93.27;102313.53;5014608;28;20429;-41
2023/05/17 09:02:01;;;;;;;6.53;4.93;;;;;;;11.34;93.25;102318.31;5015293;28;20468;-42
2023/05/17 09:04:30;;;;;;;8.93;5.07;;;;;;;11.48;92.50;102325.66;5017195;28;20433;-43
2023/05/17 09:06:59;;;;;;;7.93;4.20;;;;;;;11.16;96.81;102328.25;5017130;28;20443;-42
2023/05/17 09:09:27;;;;;;;12.83;5.60;;;;;;;10.98;98.75;102339.03;5016708;28;20439;-41
2023/05/17 09:11:55;;;;;;;6.73;4.20;;;;;;;10.82;96.71;102322.94;5017813;28;20449;-43
2023/05/17 09:14:23;;;;;;;4.97;4.23;;;;;;;10.64;100.00;102324.84;5018137;28;20429;-44
2023/05/17 09:16:57;;;;;;;5.37;3.97;;;;;;;10.55;100.00;102327.47;5015812;28;20551;-40
2023/05/17 09:19:24;;;;;;;6.27;4.67;;;;;;;11.10;100.00;102314.56;5016753;28;20440;-46
2023/05/17 09:21:53;;;;;;;7.73;4.43;;;;;;;11.77;96.67;102328.75;5015296;28;20449;-43
2023/05/17 09:24:29;;;;;;;6.30;4.50;;;;;;;12.38;86.76;102322.03;5017348;28;20444;-42
2023/05/17 09:27:02;;;;;;;6.87;5.20;;;;;;;12.11;88.70;102345.47;5006605;28;20485;-41
2023/05/17 09:29:32;;;;;;;15.80;5.20;;;;;;;11.80;96.51;102344.44;5015730;28;20504;-47
2023/05/17 09:32:12;;;;;;;5.63;4.83;;;;;;;11.13;100.00;102337.44;5015747;28;20541;-42
2023/05/17 09:34:41;;;;;;;6.23;5.63;;;;;;;10.75;100.00;102353.94;5015024;28;20953;-41
2023/05/17 09:37:18;;;;;;;5.87;4.33;;;;;;;11.03;98.37;102355.41;5013659;28;20440;-44
2023/05/17 09:39:48;;;;;;;6.80;5.17;;;;;;;11.47;97.78;102342.69;5014645;28;20455;-40
2023/05/17 09:42:16;;;;;;;7.33;4.73;;;;;;;11.87;91.16;102352.66;5013861;28;20471;-41
2023/05/17 09:44:49;;;;;;;7.10;4.80;;;;;;;12.16;82.93;102348.47;5015475;28;20437;-43
2023/05/17 09:47:24;;;;;;;4.93;4.00;;;;;;;11.97;82.78;102337.28;5014886;28;20453;-40
2023/05/17 09:49:53;;;;;;;6.63;4.20;;;;;;;11.76;86.60;102351.16;5014978;28;20721;-42
2023/05/17 09:52:21;;;;;;;7.60;4.20;;;;;;;11.68;88.12;102356.44;5014759;28;20460;-40
2023/05/17 09:54:54;;;;;;;7.50;4.10;;;;;;;11.27;87.33;102376.03;5015196;28;20433;-42
2023/05/17 09:57:22;;;;;;;7.17;4.53;;;;;;;11.34;86.53;102363.72;5015506;28;20460;-45
2023/05/17 09:59:51;;;;;;;10.17;4.57;;;;;;;11.37;83.98;102366.06;5015297;28;20464;-41
2023/05/17 10:02:22;;;;;;;5.53;3.67;;;;;;;11.74;85.00;102363.00;5014405;28;20461;-40
2023/05/17 10:04:52;;;;;;;5.27;3.87;;;;;;;12.08;77.70;102364.53;5013936;28;21125;-44
2023/05/17 10:07:21;;;;;;;3.97;3.67;;;;;;;12.19;78.59;102371.38;5014736;28;20467;-42
2023/05/17 10:09:49;;;;;;;4.70;4.30;;;;;;;12.29;71.92;102373.88;5018486;28;20433;-42
2023/05/17 10:12:22;;;;;;;4.80;4.10;;;;;;;12.23;71.09;102364.69;5019042;28;20516;-43
2023/05/17 10:14:54;;;;;;;4.90;4.60;;;;;;;12.33;73.95;102361.84;5019398;28;20800;-43
2023/05/17 10:17:24;;;;;;;4.80;4.47;;;;;;;12.23;83.05;102347.81;5017007;28;20519;-42
2023/05/17 10:19:53;;;;;;;4.40;4.10;;;;;;;12.49;80.01;102377.88;5018529;28;20436;-42
2023/05/17 10:22:22;;;;;;;9.77;4.20;;;;;;;12.26;84.53;102384.91;5018484;28;20459;-41
2023/05/17 10:24:51;;;;;;;5.47;5.07;;;;;;;12.05;82.71;102396.09;5019385;28;20480;-41
2023/05/17 10:27:21;;;;;;;5.70;5.30;;;;;;;12.21;87.18;102388.91;5015667;28;20475;-43
2023/05/17 10:29:49;;;;;;;5.63;5.13;;;;;;;12.56;79.27;102386.91;5018080;28;20429;-41
2023/05/17 10:32:21;;;;;;;6.00;5.13;;;;;;;12.51;82.10;102390.09;5018086;28;20464;-41
2023/05/17 10:34:51;;;;;;;4.97;4.57;;;;;;;12.17;86.61;102400.97;5019036;28;20432;-41
2023/05/17 10:37:38;;;;;;;7.40;4.50;;;;;;;11.83;92.22;102405.59;5017849;28;20519;-42
2023/05/17 10:40:11;;;;;;;10.30;4.80;;;;;;;11.85;98.98;102411.63;5018919;28;20606;-44
2023/05/17 10:42:45;;;;;;;8.73;4.43;;;;;;;12.57;89.79;102412.66;5019443;28;20491;-42
2023/05/17 10:45:13;;;;;;;5.30;4.70;;;;;;;12.96;87.63;102394.81;5020615;28;20501;-44
2023/05/17 10:47:42;;;;;;;4.80;4.30;;;;;;;12.90;77.78;102398.22;5019982;28;20674;-43
2023/05/17 10:50:13;;;;;;;7.00;4.70;;;;;;;12.63;82.28;102403.97;5020219;28;20443;-43
2023/05/17 10:52:47;;;;;;;5.97;4.37;;;;;;;12.51;83.03;102394.59;5019954;28;20494;-44
2023/05/17 10:55:19;;;;;;;7.37;4.43;;;;;;;12.43;79.13;102411.50;5020350;28;20433;-41
2023/05/17 10:58:08;;;;;;;10.17;4.27;;;;;;;12.12;76.19;102410.50;5019048;28;20461;-43
2023/05/17 11:00:39;;;;;;;6.87;4.10;;;;;;;12.26;75.10;102395.63;5019894;28;20971;-43
2023/05/17 11:03:12;;;;;;;3.90;3.70;;;;;;;12.37;71.46;102412.16;5018634;28;20432;-44
2023/05/17 11:05:44;;;;;;;7.50;5.03;;;;;;;12.84;78.05;102420.31;5019567;28;20878;-42
2023/05/17 11:08:18;;;;;;;9.63;4.83;;;;;;;12.88;70.18;102400.22;5020149;28;20460;-42
2023/05/17 11:11:08;;;;;;;4.90;4.40;;;;;;;12.89;73.33;102407.25;5020061;28;20432;-42
2023/05/17 11:13:46;;;;;;;6.93;4.90;;;;;;;13.22;78.57;102406.16;5018938;28;20436;-44
2023/05/17 11:16:17;;;;;;;6.33;5.07;;;;;;;12.63;78.78;102414.66;5019281;28;20970;-43
2023/05/17 11:18:52;;;;;;;11.00;5.00;;;;;;;12.21;91.81;102417.53;5018111;28;20465;-41
2023/05/17 11:21:22;;;;;;;4.93;4.33;;;;;;;12.04;87.65;102430.03;5019245;28;20453;-45
2023/05/17 11:23:56;;;;;;;7.63;4.90;;;;;;;12.27;84.90;102413.34;5019310;28;20953;-45
2023/05/17 11:26:36;;;;;;;5.70;4.80;;;;;;;12.68;84.16;102414.97;5011069;28;20500;-44
2023/05/17 11:29:09;;;;;;;7.80;5.07;;;;;;;13.32;80.83;102413.97;5019877;28;20457;-46
2023/05/17 11:31:42;;;;;;;8.70;4.17;;;;;;;13.14;72.76;102422.25;5018704;28;20468;-46